Weather History for Chandler, OK

Change the Weather History Date:

Monday, November 19, 2012

  Actual Average (KCUH) Record (KCUH)
Temperature  
Mean Temperature 63 °F -  
Max Temperature 75 °F 60 °F 80 °F (1950)
Min Temperature 51 °F 40 °F 22 °F (1959)
Degree Days  
Heating Degree Days 2    
Growing Degree Days 13 (Base 50)    
Moisture  
Dew Point 51 °F    
Average Humidity 69    
Maximum Humidity 100    
Minimum Humidity 53    
Precipitation  
Precipitation 0.00 in - - ()
Sea Level Pressure  
Sea Level Pressure 30.14 in    
Wind  
Wind Speed 8 mph (South)    
Max Wind Speed 13 mph    
Max Gust Speed 17 mph    
Visibility 10 miles    
Events Rain    
Averages and records for this station are not official NWS values.
T = Trace of Precipitation, MM = Missing Value Source: NWS Daily Summary

Daily Weather History Graph

Daily Weather History Graph

Search for Another Location

Airport:

Trip Planner

Search our weather history database for the weather conditions in past years. The results will help you decide how hot, cold, wet, or windy it might be!

Date:

Astronomy

Nov. 19, 2012 Rise Set
Actual Time 7:07 AM CST 5:17 PM CST
Civil Twilight 6:40 AM CST 5:45 PM CST
Nautical Twilight 6:09 AM CST 6:16 PM CST
Astronomical Twilight 5:38 AM CST 6:46 PM CST
Moon 12:15 PM CST (11/19) 11:40 PM CST (11/19)
Length of Visible Light 11h 04m
Length of Day
10h 09m
Waxing Crescent, 41% of the Moon is Illuminated
Nov 19
Waxing Crescent
Nov 20
First Quarter
Nov 28
Full
Dec 6
Last Quarter
Dec 13
New

Hourly Weather History & Observations

Time (CST) Temp. Dew Point Humidity Pressure Visibility Wind Dir Wind Speed Gust Speed Precip Events Conditions
12:15 AM 55.4 °F 46.4 °F 72% 30.17 in 10.0 mi SSE 6.9 mph - N/A Rain Rain
12:35 AM 55.4 °F 46.4 °F 72% 30.17 in 10.0 mi SSE 5.8 mph - N/A Rain Light Rain
12:55 AM 55.4 °F 46.4 °F 72% 30.16 in 10.0 mi SSE 8.1 mph - N/A   Light Drizzle
1:15 AM 55.4 °F 44.6 °F 67% 30.16 in 10.0 mi SSE 8.1 mph - N/A Rain Light Rain
1:35 AM 55.4 °F 44.6 °F 67% 30.15 in 10.0 mi SSE 9.2 mph - N/A   Overcast
1:55 AM 55.4 °F 44.6 °F 67% 30.15 in 10.0 mi SSE 9.2 mph - N/A   Overcast
2:15 AM 55.4 °F 44.6 °F 67% 30.15 in 10.0 mi SSE 10.4 mph - N/A   Overcast
2:35 AM 55.4 °F 44.6 °F 67% 30.15 in 10.0 mi SSE 8.1 mph - N/A   Overcast
2:55 AM 55.4 °F 44.6 °F 67% 30.15 in 10.0 mi SSE 9.2 mph - N/A   Mostly Cloudy
3:15 AM 55.4 °F 44.6 °F 67% 30.15 in 10.0 mi SSE 11.5 mph - N/A   Scattered Clouds
3:35 AM 55.4 °F 44.6 °F 67% 30.14 in 10.0 mi SSE 12.7 mph 16.1 mph N/A   Scattered Clouds
3:55 AM 55.4 °F 44.6 °F 67% 30.14 in 10.0 mi SSE 8.1 mph - N/A   Clear
4:15 AM 53.6 °F 44.6 °F 72% 30.14 in 10.0 mi SSE 9.2 mph - N/A   Clear
4:35 AM 53.6 °F 44.6 °F 72% 30.14 in 10.0 mi SSE 9.2 mph - N/A   Clear
4:55 AM 53.6 °F 44.6 °F 72% 30.14 in 10.0 mi SSE 9.2 mph - N/A   Clear
5:15 AM 53.6 °F 44.6 °F 72% 30.13 in 10.0 mi SSE 8.1 mph - N/A   Clear
5:35 AM 53.6 °F 44.6 °F 72% 30.13 in 10.0 mi SSE 8.1 mph - N/A   Clear
5:55 AM 53.6 °F 44.6 °F 72% 30.13 in 10.0 mi SSE 10.4 mph - N/A   Clear
6:15 AM 53.6 °F 44.6 °F 72% 30.12 in 10.0 mi SSE 11.5 mph - N/A   Clear
6:35 AM 53.6 °F 44.6 °F 72% 30.13 in 10.0 mi SSE 8.1 mph - N/A   Clear
6:55 AM 51.8 °F 44.6 °F 76% 30.14 in 10.0 mi SSE 6.9 mph - N/A   Clear
7:35 AM 53.6 °F 44.6 °F 72% 30.14 in 10.0 mi SSE 8.1 mph - N/A   Clear
7:55 AM 53.6 °F 44.6 °F 72% 30.14 in 10.0 mi SSE 9.2 mph - N/A   Clear
8:15 AM 55.4 °F 44.6 °F 67% 30.14 in 10.0 mi SSE 9.2 mph - N/A   Clear
8:35 AM 55.4 °F 46.4 °F 72% 30.15 in 10.0 mi SSE 8.1 mph - N/A   Clear
8:55 AM 59.0 °F 46.4 °F 63% 30.16 in 10.0 mi SSE 9.2 mph - N/A   Clear
9:15 AM 60.8 °F 46.4 °F 59% 30.15 in 10.0 mi South 9.2 mph - N/A   Clear
9:35 AM 62.6 °F 46.4 °F 55% 30.15 in 10.0 mi South 9.2 mph - N/A   Clear
9:55 AM 64.4 °F 50.0 °F 59% 30.16 in 10.0 mi SSW 8.1 mph - N/A   Clear
10:15 AM 64.4 °F 50.0 °F 59% 30.16 in 10.0 mi South 10.4 mph - N/A   Clear
10:35 AM 68.0 °F 51.8 °F 56% 30.16 in 10.0 mi SSW 11.5 mph - N/A   Clear
10:55 AM 68.0 °F 51.8 °F 56% 30.16 in 10.0 mi SSW 8.1 mph - N/A   Clear
11:15 AM 69.8 °F 51.8 °F 53% 30.15 in 10.0 mi SSW 9.2 mph - N/A   Clear
11:35 AM 71.6 °F 53.6 °F 53% 30.14 in 10.0 mi SSW 10.4 mph - N/A   Clear
11:55 AM 71.6 °F 55.4 °F 57% 30.13 in 10.0 mi South 11.5 mph 16.1 mph N/A   Clear
12:15 PM 73.4 °F 55.4 °F 53% 30.13 in 10.0 mi SSW 9.2 mph - N/A   Clear
12:35 PM 73.4 °F 55.4 °F 53% 30.12 in 10.0 mi SW 9.2 mph - N/A   Clear
12:55 PM 73.4 °F 55.4 °F 53% 30.12 in 10.0 mi SSW 8.1 mph - N/A   Clear
1:15 PM 73.4 °F 55.4 °F 53% 30.11 in 10.0 mi South 6.9 mph - N/A   Clear
1:35 PM 73.4 °F 55.4 °F 53% 30.11 in 10.0 mi South 9.2 mph - N/A   Clear
1:55 PM 73.4 °F 55.4 °F 53% 30.11 in 10.0 mi SSW 5.8 mph - N/A   Clear
2:15 PM 73.4 °F 55.4 °F 53% 30.10 in 10.0 mi SW 6.9 mph - N/A   Clear
2:35 PM 73.4 °F 57.2 °F 57% 30.10 in 10.0 mi SW 9.2 mph 17.3 mph N/A   Clear
2:55 PM 75.2 °F 57.2 °F 53% 30.09 in 10.0 mi SSW 8.1 mph - N/A   Clear
3:15 PM 73.4 °F 55.4 °F 53% 30.09 in 10.0 mi South 8.1 mph - N/A   Clear
3:35 PM 73.4 °F 55.4 °F 53% 30.09 in 10.0 mi SSW 5.8 mph - N/A   Clear
3:55 PM 73.4 °F 55.4 °F 53% 30.10 in 10.0 mi South 5.8 mph - N/A   Clear
4:15 PM 73.4 °F 57.2 °F 57% 30.10 in 10.0 mi South 8.1 mph - N/A   Clear
4:35 PM 71.6 °F 57.2 °F 60% 30.10 in 10.0 mi South 5.8 mph - N/A   Clear
4:55 PM 71.6 °F 55.4 °F 57% 30.10 in 10.0 mi South 5.8 mph - N/A   Clear
5:15 PM 69.8 °F 55.4 °F 60% 30.11 in 10.0 mi South 4.6 mph - N/A   Clear
5:35 PM 68.0 °F 55.4 °F 64% 30.12 in 10.0 mi South 4.6 mph - N/A   Clear
5:55 PM 64.4 °F 55.4 °F 73% 30.12 in 10.0 mi SSE 5.8 mph - N/A   Clear
6:15 PM 64.4 °F 55.4 °F 73% 30.12 in 10.0 mi SSE 3.5 mph - N/A   Clear
6:35 PM 62.6 °F 55.4 °F 77% 30.13 in 10.0 mi SSE 3.5 mph - N/A   Clear
6:55 PM 62.6 °F 55.4 °F 77% 30.13 in 10.0 mi SSE 4.6 mph - N/A   Clear
7:15 PM 62.6 °F 55.4 °F 77% 30.14 in 10.0 mi SE 4.6 mph - N/A   Clear
7:35 PM 62.6 °F 55.4 °F 77% 30.14 in 10.0 mi SE 4.6 mph - N/A   Clear
7:55 PM 62.6 °F 55.4 °F 77% 30.14 in 10.0 mi SSE 4.6 mph - N/A   Clear
8:15 PM 60.8 °F 55.4 °F 82% 30.15 in 10.0 mi SE 3.5 mph - N/A   Clear
8:35 PM 59.0 °F 55.4 °F 88% 30.15 in 7.0 mi East 3.5 mph - N/A   Clear
9:15 PM 59.0 °F 55.4 °F 88% 30.15 in 10.0 mi SSE 4.6 mph - N/A   Clear
9:35 PM 59.0 °F 55.4 °F 88% 30.16 in 10.0 mi ESE 3.5 mph - N/A   Clear
9:55 PM 57.2 °F 55.4 °F 94% 30.16 in 10.0 mi Calm Calm - N/A   Clear
10:15 PM 55.4 °F 53.6 °F 94% 30.17 in 10.0 mi Calm Calm - N/A   Clear
10:35 PM 55.4 °F 53.6 °F 94% 30.17 in 10.0 mi Calm Calm - N/A   Clear
10:55 PM 55.4 °F 53.6 °F 94% 30.16 in 10.0 mi Calm Calm - N/A   Clear
11:15 PM 53.6 °F 53.6 °F 100% 30.16 in 10.0 mi SE 3.5 mph - N/A   Clear
11:35 PM 55.4 °F 53.6 °F 94% 30.16 in 10.0 mi Calm Calm - N/A   Clear
11:55 PM 53.6 °F 53.6 °F 100% 30.15 in 10.0 mi Calm Calm - N/A   Clear